JRLK1: John Redmond Lake

Data processed at Fri Mar 09 2018 23:40


All information presented herein is the property of the government of the United States of America and may be revised or deleted at any time without prior notice.
Dissemination of this information without the expressed written consent of the Public Affairs Office, Tulsa District U.S. Army Corps of Engineers is strictly prohibited.
These data are gathered electronically and, as presented, have not undergone any form of quality control. These data are not guaranteed to be valid or correct.
Go to home page.
Go to station list.

Upstream stations:

Downstream station:
Previous Day
Next Day
Current Day
    
SHEF ID:       JRLK1     John Redmond Lake
STATION TYPE:  RESERVOIR
Normal Pool:  Bottom =  1026.00, Top =  1041.00

               PRECIP ELEVATION   STORAGE    INFLOW   RELEASE  AIR-TEMP  WIND-DIRWIND-SPEED REL-HUMID SOLAR-RAD   VOLTAGE  BAT-LOAD
                   in        ft     ac-ft       cfs       cfs         F       deg       mph         %      W/m2      volt      volt
              Ccp-Rev   Ccp-Rev   Ccp-Rev  Regi-Rev  Regi-Rev   Ccp-Rev   Ccp-Rev   Ccp-Rev   Ccp-Rev   Ccp-Rev   Ccp-Rev   Ccp-Rev
(US/Central)
03/07 00:00      0.00   1041.82     75032         0       183     33.42    332.40     24.80     67.80      0.00     12.67     12.44
03/07 01:00      0.00   1041.79     74770       632       183     32.85    343.30     22.20     67.34      0.00     12.66     12.44
03/07 02:00      0.00   1041.81     74959       648       183     32.54    345.50     21.50     66.13      0.00     12.64     12.41
03/07 03:00      0.00   1041.87     75526       648       183     32.52    341.70     17.90     67.03      0.00     12.63     12.40
03/07 04:00      0.00   1041.87     75526       648       183     32.38    331.70     17.30     68.36      0.00     12.62     12.38
03/07 05:00      0.00   1041.86     75432       648       183     30.78    326.20     18.30     70.20      0.00     12.60     12.37
03/07 06:00      0.00   1041.83     75148        16       183     29.10    326.90     17.60     77.07      0.00     12.59     12.36
03/07 07:00      0.00   1041.82     75053         0       183     28.11    318.70     19.10     80.20      0.00     12.59     12.34
03/07 08:00      0.00   1041.82     75053         3       183     27.55    324.30     16.70     82.22    113.90     12.69     12.37
03/07 09:00      0.00   1041.85     75337         7       183     29.23    321.50     17.30     80.47    322.50     13.09     12.61
03/07 10:00      0.00   1041.78     74675        11       183     31.95    322.70     21.00     73.77    498.80     13.32     13.01
03/07 11:00      0.00   1041.81     74959        11       183     33.78    309.10     17.30     66.77    710.10     13.90     12.96
03/07 12:00      0.00   1041.83     75148        11       183     36.48    301.20     17.80     59.50    839.40     14.18     12.93
03/07 13:00      0.00   1041.80     74864         8       183     38.64    304.50     19.70     52.23    866.50     13.73     12.90
03/07 14:00      0.00   1041.81     74959         4       198     41.09    315.00     23.50     43.10    827.80     14.05     12.85
03/07 15:00      0.00   1041.84     75243         0       320     42.80    329.80     23.30     38.80    719.60     14.24     12.82
03/07 16:00      0.00   1041.79     74770         8       320     44.55    316.10     21.30     35.97    555.60     13.02     12.79
03/07 17:00      0.00   1041.76     74486         8       320     46.18    319.30     24.20     32.19    347.00     14.02     12.67
03/07 18:00      0.00   1041.81     74959         8       320     46.26    329.70     21.30     31.79     97.20     12.85     12.70
03/07 19:00      0.00   1041.76     74486         8       320     44.71    337.70     16.40     33.56      0.00     12.76     12.54
03/07 20:00      0.00   1041.78     74675         9       320     42.85    344.60     11.60     36.83      0.00     12.74     12.50
03/07 21:00      0.00   1041.79     74770         4       320     42.03    343.10     11.60     37.02      0.00     12.71     12.47
03/07 22:00      0.00   1041.77     74581        95       320     39.65    354.10     11.00     40.40      0.00     12.70     12.46
03/07 23:00      0.00   1041.77     74581       205       320     37.54    353.70     12.10     44.91      0.00     12.68     12.44